Aviation Digital Data Service (ADDS)

Output produced by METARs form (1808 UTC 23 January 2019)
found at http://aviationweather.gov/metar/data/
 
KCLL 231753Z 32013G20KT 10SM CLR 04/M04 A3016 RMK AO2 SLP213 T00391039 10044 20017 58004
KCLL 231720Z 2318/2418 32013G23KT P6SM SCT120 
     FM240000 31005KT P6SM SKC 
     FM241500 17006KT P6SM SCT250